sensor_id;sensor_type;location;lat;lon;timestamp;P1;durP1;ratioP1;P2;durP2;ratioP2
1308;SDS011;647;48.840;9.314;2022-11-11T00:00:16;74.35;;;13.07;;
1308;SDS011;647;48.840;9.314;2022-11-11T00:02:43;72.95;;;11.95;;
1308;SDS011;647;48.840;9.314;2022-11-11T00:05:10;68.88;;;12.23;;
1308;SDS011;647;48.840;9.314;2022-11-11T00:07:38;70.18;;;11.40;;
1308;SDS011;647;48.840;9.314;2022-11-11T00:10:05;67.07;;;11.70;;
1308;SDS011;647;48.840;9.314;2022-11-11T00:12:33;70.15;;;11.93;;
1308;SDS011;647;48.840;9.314;2022-11-11T00:15:00;67.00;;;11.20;;
1308;SDS011;647;48.840;9.314;2022-11-11T00:17:27;71.38;;;12.15;;
1308;SDS011;647;48.840;9.314;2022-11-11T00:20:11;66.30;;;11.35;;
1308;SDS011;647;48.840;9.314;2022-11-11T00:22:56;69.60;;;10.75;;
1308;SDS011;647;48.840;9.314;2022-11-11T00:25:41;67.63;;;11.55;;
1308;SDS011;647;48.840;9.314;2022-11-11T00:28:07;67.75;;;11.15;;
1308;SDS011;647;48.840;9.314;2022-11-11T00:30:34;69.13;;;10.93;;
1308;SDS011;647;48.840;9.314;2022-11-11T00:33:01;70.05;;;12.27;;
1308;SDS011;647;48.840;9.314;2022-11-11T00:35:28;68.93;;;12.18;;
1308;SDS011;647;48.840;9.314;2022-11-11T00:38:13;74.13;;;13.93;;
1308;SDS011;647;48.840;9.314;2022-11-11T00:41:01;76.57;;;12.68;;
1308;SDS011;647;48.840;9.314;2022-11-11T00:43:28;70.10;;;13.27;;
1308;SDS011;647;48.840;9.314;2022-11-11T00:45:55;85.10;;;14.48;;
1308;SDS011;647;48.840;9.314;2022-11-11T00:48:41;95.18;;;14.05;;
1308;SDS011;647;48.840;9.314;2022-11-11T00:51:26;82.68;;;13.93;;
1308;SDS011;647;48.840;9.314;2022-11-11T00:53:54;93.28;;;14.02;;
1308;SDS011;647;48.840;9.314;2022-11-11T00:56:22;71.55;;;12.10;;
1308;SDS011;647;48.840;9.314;2022-11-11T00:58:49;68.30;;;11.88;;
1308;SDS011;647;48.840;9.314;2022-11-11T01:01:16;119.80;;;14.98;;
1308;SDS011;647;48.840;9.314;2022-11-11T01:03:44;105.32;;;16.40;;
1308;SDS011;647;48.840;9.314;2022-11-11T01:06:11;82.57;;;12.52;;
1308;SDS011;647;48.840;9.314;2022-11-11T01:08:38;83.78;;;13.88;;
1308;SDS011;647;48.840;9.314;2022-11-11T01:11:12;90.18;;;14.63;;
1308;SDS011;647;48.840;9.314;2022-11-11T01:13:39;105.15;;;14.30;;
1308;SDS011;647;48.840;9.314;2022-11-11T01:16:07;96.72;;;13.68;;
1308;SDS011;647;48.840;9.314;2022-11-11T01:18:37;77.32;;;13.50;;
1308;SDS011;647;48.840;9.314;2022-11-11T01:21:04;91.47;;;13.98;;
1308;SDS011;647;48.840;9.314;2022-11-11T01:23:36;160.75;;;18.38;;
1308;SDS011;647;48.840;9.314;2022-11-11T01:26:05;129.75;;;15.85;;
1308;SDS011;647;48.840;9.314;2022-11-11T01:28:35;148.05;;;17.00;;
1308;SDS011;647;48.840;9.314;2022-11-11T01:31:03;176.40;;;17.92;;
1308;SDS011;647;48.840;9.314;2022-11-11T01:33:31;149.00;;;18.25;;
1308;SDS011;647;48.840;9.314;2022-11-11T01:36:05;124.13;;;16.77;;
1308;SDS011;647;48.840;9.314;2022-11-11T01:38:33;83.10;;;13.55;;
1308;SDS011;647;48.840;9.314;2022-11-11T01:41:00;132.77;;;17.35;;
1308;SDS011;647;48.840;9.314;2022-11-11T01:43:50;123.78;;;17.58;;
1308;SDS011;647;48.840;9.314;2022-11-11T01:46:20;113.75;;;15.40;;
1308;SDS011;647;48.840;9.314;2022-11-11T01:48:53;107.55;;;16.20;;
1308;SDS011;647;48.840;9.314;2022-11-11T01:51:52;148.77;;;19.55;;
1308;SDS011;647;48.840;9.314;2022-11-11T01:54:24;153.98;;;19.98;;
1308;SDS011;647;48.840;9.314;2022-11-11T01:56:55;147.05;;;18.85;;
1308;SDS011;647;48.840;9.314;2022-11-11T01:59:27;93.25;;;13.80;;
1308;SDS011;647;48.840;9.314;2022-11-11T02:01:56;142.98;;;17.52;;
1308;SDS011;647;48.840;9.314;2022-11-11T02:04:22;85.65;;;13.57;;
1308;SDS011;647;48.840;9.314;2022-11-11T02:07:08;129.25;;;16.30;;
1308;SDS011;647;48.840;9.314;2022-11-11T02:09:35;68.03;;;11.93;;
1308;SDS011;647;48.840;9.314;2022-11-11T02:12:07;107.60;;;16.02;;
1308;SDS011;647;48.840;9.314;2022-11-11T02:14:54;67.70;;;10.90;;
1308;SDS011;647;48.840;9.314;2022-11-11T02:17:25;69.75;;;12.07;;
1308;SDS011;647;48.840;9.314;2022-11-11T02:19:55;73.35;;;11.75;;
1308;SDS011;647;48.840;9.314;2022-11-11T02:22:27;73.45;;;11.77;;
1308;SDS011;647;48.840;9.314;2022-11-11T02:25:02;69.63;;;12.30;;
1308;SDS011;647;48.840;9.314;2022-11-11T02:27:33;71.05;;;11.95;;
1308;SDS011;647;48.840;9.314;2022-11-11T02:30:04;68.68;;;11.52;;
1308;SDS011;647;48.840;9.314;2022-11-11T02:32:39;66.75;;;11.13;;
1308;SDS011;647;48.840;9.314;2022-11-11T02:35:09;97.40;;;13.48;;
1308;SDS011;647;48.840;9.314;2022-11-11T02:37:38;94.97;;;14.43;;
1308;SDS011;647;48.840;9.314;2022-11-11T02:40:08;82.45;;;12.40;;
1308;SDS011;647;48.840;9.314;2022-11-11T02:42:37;101.63;;;13.30;;
1308;SDS011;647;48.840;9.314;2022-11-11T02:45:04;106.10;;;15.30;;
1308;SDS011;647;48.840;9.314;2022-11-11T02:47:31;116.93;;;16.05;;
1308;SDS011;647;48.840;9.314;2022-11-11T02:49:58;109.45;;;13.95;;
1308;SDS011;647;48.840;9.314;2022-11-11T02:52:24;68.53;;;10.95;;
1308;SDS011;647;48.840;9.314;2022-11-11T02:54:51;81.93;;;13.80;;
1308;SDS011;647;48.840;9.314;2022-11-11T02:57:19;75.15;;;14.20;;
1308;SDS011;647;48.840;9.314;2022-11-11T02:59:47;68.88;;;12.20;;
1308;SDS011;647;48.840;9.314;2022-11-11T03:02:13;74.75;;;12.10;;
1308;SDS011;647;48.840;9.314;2022-11-11T03:04:40;124.68;;;13.80;;
1308;SDS011;647;48.840;9.314;2022-11-11T03:07:07;98.10;;;13.52;;
1308;SDS011;647;48.840;9.314;2022-11-11T03:09:34;117.15;;;14.13;;
1308;SDS011;647;48.840;9.314;2022-11-11T03:12:01;132.75;;;17.23;;
1308;SDS011;647;48.840;9.314;2022-11-11T03:14:29;144.60;;;20.00;;
1308;SDS011;647;48.840;9.314;2022-11-11T03:16:56;114.00;;;14.70;;
1308;SDS011;647;48.840;9.314;2022-11-11T03:19:40;96.07;;;14.40;;
1308;SDS011;647;48.840;9.314;2022-11-11T03:22:07;144.20;;;17.10;;
1308;SDS011;647;48.840;9.314;2022-11-11T03:24:33;110.07;;;16.33;;
1308;SDS011;647;48.840;9.314;2022-11-11T03:27:17;82.18;;;13.93;;
1308;SDS011;647;48.840;9.314;2022-11-11T03:29:45;107.38;;;16.60;;
1308;SDS011;647;48.840;9.314;2022-11-11T03:32:12;83.18;;;14.82;;
1308;SDS011;647;48.840;9.314;2022-11-11T03:34:38;76.93;;;12.50;;
1308;SDS011;647;48.840;9.314;2022-11-11T03:37:06;96.07;;;14.60;;
1308;SDS011;647;48.840;9.314;2022-11-11T03:39:51;109.68;;;15.07;;
1308;SDS011;647;48.840;9.314;2022-11-11T03:42:18;100.63;;;15.40;;
1308;SDS011;647;48.840;9.314;2022-11-11T03:44:46;143.50;;;18.38;;
1308;SDS011;647;48.840;9.314;2022-11-11T03:47:12;136.07;;;17.55;;
1308;SDS011;647;48.840;9.314;2022-11-11T03:49:40;89.57;;;14.57;;
1308;SDS011;647;48.840;9.314;2022-11-11T03:52:09;112.20;;;15.63;;
1308;SDS011;647;48.840;9.314;2022-11-11T03:54:37;69.60;;;12.90;;
1308;SDS011;647;48.840;9.314;2022-11-11T03:57:03;104.05;;;15.25;;
1308;SDS011;647;48.840;9.314;2022-11-11T03:59:49;73.05;;;13.13;;
1308;SDS011;647;48.840;9.314;2022-11-11T04:02:16;66.90;;;12.02;;
1308;SDS011;647;48.840;9.314;2022-11-11T04:05:00;71.00;;;12.13;;
1308;SDS011;647;48.840;9.314;2022-11-11T04:07:44;70.38;;;11.88;;
1308;SDS011;647;48.840;9.314;2022-11-11T04:10:28;67.80;;;10.98;;
1308;SDS011;647;48.840;9.314;2022-11-11T04:12:56;69.05;;;11.00;;
1308;SDS011;647;48.840;9.314;2022-11-11T04:15:43;69.95;;;10.80;;
1308;SDS011;647;48.840;9.314;2022-11-11T04:18:27;68.90;;;11.93;;
1308;SDS011;647;48.840;9.314;2022-11-11T04:21:11;68.30;;;11.25;;
1308;SDS011;647;48.840;9.314;2022-11-11T04:23:56;66.97;;;9.93;;
1308;SDS011;647;48.840;9.314;2022-11-11T04:26:22;65.78;;;10.75;;
1308;SDS011;647;48.840;9.314;2022-11-11T04:28:48;68.30;;;11.80;;
1308;SDS011;647;48.840;9.314;2022-11-11T04:31:34;69.60;;;11.52;;
1308;SDS011;647;48.840;9.314;2022-11-11T04:34:00;69.22;;;11.30;;
1308;SDS011;647;48.840;9.314;2022-11-11T04:36:26;65.57;;;10.43;;
1308;SDS011;647;48.840;9.314;2022-11-11T04:38:53;67.38;;;11.88;;
1308;SDS011;647;48.840;9.314;2022-11-11T04:41:38;68.30;;;11.93;;
1308;SDS011;647;48.840;9.314;2022-11-11T04:44:05;68.45;;;11.30;;
1308;SDS011;647;48.840;9.314;2022-11-11T04:46:50;64.80;;;9.88;;
1308;SDS011;647;48.840;9.314;2022-11-11T04:49:17;67.07;;;10.18;;
1308;SDS011;647;48.840;9.314;2022-11-11T04:51:44;66.57;;;10.70;;
1308;SDS011;647;48.840;9.314;2022-11-11T04:54:28;66.90;;;10.45;;
1308;SDS011;647;48.840;9.314;2022-11-11T04:57:16;67.85;;;10.95;;
1308;SDS011;647;48.840;9.314;2022-11-11T04:59:41;66.23;;;10.87;;
1308;SDS011;647;48.840;9.314;2022-11-11T05:02:09;65.57;;;10.38;;
1308;SDS011;647;48.840;9.314;2022-11-11T05:04:54;67.10;;;11.10;;
1308;SDS011;647;48.840;9.314;2022-11-11T05:07:21;66.15;;;10.98;;
1308;SDS011;647;48.840;9.314;2022-11-11T05:10:05;66.78;;;10.60;;
1308;SDS011;647;48.840;9.314;2022-11-11T05:12:33;67.07;;;10.55;;
1308;SDS011;647;48.840;9.314;2022-11-11T05:15:00;68.00;;;11.60;;
1308;SDS011;647;48.840;9.314;2022-11-11T05:17:45;65.95;;;10.60;;
1308;SDS011;647;48.840;9.314;2022-11-11T05:20:35;65.90;;;10.52;;
1308;SDS011;647;48.840;9.314;2022-11-11T05:23:19;70.32;;;11.15;;
1308;SDS011;647;48.840;9.314;2022-11-11T05:25:46;69.57;;;10.27;;
1308;SDS011;647;48.840;9.314;2022-11-11T05:28:12;65.73;;;11.17;;
1308;SDS011;647;48.840;9.314;2022-11-11T05:30:39;68.32;;;11.05;;
1308;SDS011;647;48.840;9.314;2022-11-11T05:33:07;66.93;;;10.88;;
1308;SDS011;647;48.840;9.314;2022-11-11T05:35:33;66.15;;;10.18;;
1308;SDS011;647;48.840;9.314;2022-11-11T05:38:00;68.97;;;11.70;;
1308;SDS011;647;48.840;9.314;2022-11-11T05:40:45;68.82;;;11.73;;
1308;SDS011;647;48.840;9.314;2022-11-11T05:43:12;72.10;;;11.02;;
1308;SDS011;647;48.840;9.314;2022-11-11T05:45:39;67.65;;;11.35;;
1308;SDS011;647;48.840;9.314;2022-11-11T05:48:08;69.97;;;12.65;;
1308;SDS011;647;48.840;9.314;2022-11-11T05:50:35;68.97;;;12.13;;
1308;SDS011;647;48.840;9.314;2022-11-11T05:53:05;67.18;;;11.20;;
1308;SDS011;647;48.840;9.314;2022-11-11T05:55:32;67.93;;;11.88;;
1308;SDS011;647;48.840;9.314;2022-11-11T05:57:59;66.72;;;10.57;;
1308;SDS011;647;48.840;9.314;2022-11-11T06:00:26;68.05;;;11.73;;
1308;SDS011;647;48.840;9.314;2022-11-11T06:02:52;68.07;;;12.30;;
1308;SDS011;647;48.840;9.314;2022-11-11T06:05:21;71.13;;;12.60;;
1308;SDS011;647;48.840;9.314;2022-11-11T06:07:47;70.00;;;12.30;;
1308;SDS011;647;48.840;9.314;2022-11-11T06:10:18;68.32;;;12.63;;
1308;SDS011;647;48.840;9.314;2022-11-11T06:12:58;71.05;;;12.20;;
1308;SDS011;647;48.840;9.314;2022-11-11T06:15:29;80.28;;;13.68;;
1308;SDS011;647;48.840;9.314;2022-11-11T06:17:57;73.50;;;13.85;;
1308;SDS011;647;48.840;9.314;2022-11-11T06:20:26;68.75;;;12.93;;
1308;SDS011;647;48.840;9.314;2022-11-11T06:22:53;74.82;;;12.85;;
1308;SDS011;647;48.840;9.314;2022-11-11T06:25:23;68.18;;;11.95;;
1308;SDS011;647;48.840;9.314;2022-11-11T06:28:08;72.88;;;13.43;;
1308;SDS011;647;48.840;9.314;2022-11-11T06:30:35;69.43;;;12.98;;
1308;SDS011;647;48.840;9.314;2022-11-11T06:33:01;69.32;;;11.98;;
1308;SDS011;647;48.840;9.314;2022-11-11T06:35:30;68.45;;;11.88;;
1308;SDS011;647;48.840;9.314;2022-11-11T06:37:56;69.65;;;12.27;;
1308;SDS011;647;48.840;9.314;2022-11-11T06:40:23;68.72;;;11.65;;
1308;SDS011;647;48.840;9.314;2022-11-11T06:42:50;69.32;;;12.40;;
1308;SDS011;647;48.840;9.314;2022-11-11T06:45:17;69.43;;;11.57;;
1308;SDS011;647;48.840;9.314;2022-11-11T06:47:44;71.32;;;12.48;;
1308;SDS011;647;48.840;9.314;2022-11-11T06:50:10;69.07;;;11.88;;
1308;SDS011;647;48.840;9.314;2022-11-11T06:52:38;70.75;;;12.45;;
1308;SDS011;647;48.840;9.314;2022-11-11T06:55:05;70.93;;;12.80;;
1308;SDS011;647;48.840;9.314;2022-11-11T06:57:33;69.68;;;13.35;;
1308;SDS011;647;48.840;9.314;2022-11-11T07:00:00;69.32;;;12.07;;
1308;SDS011;647;48.840;9.314;2022-11-11T07:02:27;69.25;;;11.95;;
1308;SDS011;647;48.840;9.314;2022-11-11T07:04:53;69.72;;;12.43;;
1308;SDS011;647;48.840;9.314;2022-11-11T07:07:20;69.53;;;12.20;;
1308;SDS011;647;48.840;9.314;2022-11-11T07:09:49;71.80;;;12.55;;
1308;SDS011;647;48.840;9.314;2022-11-11T07:12:15;67.95;;;12.18;;
1308;SDS011;647;48.840;9.314;2022-11-11T07:14:43;67.05;;;11.45;;
1308;SDS011;647;48.840;9.314;2022-11-11T07:17:09;69.65;;;11.88;;
1308;SDS011;647;48.840;9.314;2022-11-11T07:19:36;68.85;;;12.82;;
1308;SDS011;647;48.840;9.314;2022-11-11T07:22:03;68.43;;;12.40;;
1308;SDS011;647;48.840;9.314;2022-11-11T07:24:30;67.40;;;11.35;;
1308;SDS011;647;48.840;9.314;2022-11-11T07:26:58;67.72;;;11.85;;
1308;SDS011;647;48.840;9.314;2022-11-11T07:29:26;71.85;;;11.93;;
1308;SDS011;647;48.840;9.314;2022-11-11T07:31:53;70.00;;;11.65;;
1308;SDS011;647;48.840;9.314;2022-11-11T07:34:20;68.20;;;11.13;;
1308;SDS011;647;48.840;9.314;2022-11-11T07:36:47;68.97;;;12.15;;
1308;SDS011;647;48.840;9.314;2022-11-11T07:39:13;72.97;;;12.68;;
1308;SDS011;647;48.840;9.314;2022-11-11T07:41:40;68.95;;;12.23;;
1308;SDS011;647;48.840;9.314;2022-11-11T07:44:08;67.63;;;11.63;;
1308;SDS011;647;48.840;9.314;2022-11-11T07:46:35;66.95;;;11.80;;
1308;SDS011;647;48.840;9.314;2022-11-11T07:49:02;68.72;;;12.57;;
1308;SDS011;647;48.840;9.314;2022-11-11T07:51:29;73.68;;;12.50;;
1308;SDS011;647;48.840;9.314;2022-11-11T07:53:56;66.97;;;11.00;;
1308;SDS011;647;48.840;9.314;2022-11-11T07:56:22;67.75;;;12.50;;
1308;SDS011;647;48.840;9.314;2022-11-11T07:58:49;69.93;;;11.98;;
1308;SDS011;647;48.840;9.314;2022-11-11T08:01:17;67.78;;;11.80;;
1308;SDS011;647;48.840;9.314;2022-11-11T08:03:44;68.57;;;12.00;;
1308;SDS011;647;48.840;9.314;2022-11-11T08:06:14;68.47;;;11.55;;
1308;SDS011;647;48.840;9.314;2022-11-11T08:08:42;70.28;;;11.77;;
1308;SDS011;647;48.840;9.314;2022-11-11T08:11:08;71.50;;;11.48;;
1308;SDS011;647;48.840;9.314;2022-11-11T08:13:35;68.65;;;11.38;;
1308;SDS011;647;48.840;9.314;2022-11-11T08:16:08;73.05;;;12.57;;
1308;SDS011;647;48.840;9.314;2022-11-11T08:18:38;65.93;;;10.55;;
1308;SDS011;647;48.840;9.314;2022-11-11T08:21:05;68.20;;;10.93;;
1308;SDS011;647;48.840;9.314;2022-11-11T08:23:33;71.45;;;10.95;;
1308;SDS011;647;48.840;9.314;2022-11-11T08:26:00;67.35;;;10.07;;
1308;SDS011;647;48.840;9.314;2022-11-11T08:28:27;66.75;;;10.65;;
1308;SDS011;647;48.840;9.314;2022-11-11T08:30:57;68.67;;;10.57;;
1308;SDS011;647;48.840;9.314;2022-11-11T08:33:24;68.55;;;11.23;;
1308;SDS011;647;48.840;9.314;2022-11-11T08:35:53;68.33;;;11.00;;
1308;SDS011;647;48.840;9.314;2022-11-11T08:38:23;64.80;;;10.73;;
1308;SDS011;647;48.840;9.314;2022-11-11T08:40:50;67.93;;;11.60;;
1308;SDS011;647;48.840;9.314;2022-11-11T08:43:17;69.00;;;10.33;;
1308;SDS011;647;48.840;9.314;2022-11-11T08:45:45;64.97;;;9.40;;
1308;SDS011;647;48.840;9.314;2022-11-11T08:48:11;65.10;;;9.73;;
1308;SDS011;647;48.840;9.314;2022-11-11T08:50:39;67.10;;;9.67;;
1308;SDS011;647;48.840;9.314;2022-11-11T08:53:08;67.20;;;10.47;;
1308;SDS011;647;48.840;9.314;2022-11-11T08:55:35;67.60;;;9.27;;
1308;SDS011;647;48.840;9.314;2022-11-11T08:58:03;66.00;;;9.90;;
1308;SDS011;647;48.840;9.314;2022-11-11T09:00:31;67.10;;;11.60;;
1308;SDS011;647;48.840;9.314;2022-11-11T09:02:59;69.50;;;12.07;;
1308;SDS011;647;48.840;9.314;2022-11-11T09:05:26;73.43;;;13.80;;
1308;SDS011;647;48.840;9.314;2022-11-11T09:07:53;65.50;;;9.63;;
1308;SDS011;647;48.840;9.314;2022-11-11T09:10:21;65.30;;;9.63;;
1308;SDS011;647;48.840;9.314;2022-11-11T09:12:48;67.37;;;10.17;;
1308;SDS011;647;48.840;9.314;2022-11-11T09:15:20;69.77;;;14.47;;
1308;SDS011;647;48.840;9.314;2022-11-11T09:17:47;69.53;;;10.50;;
1308;SDS011;647;48.840;9.314;2022-11-11T09:20:14;67.13;;;9.37;;
1308;SDS011;647;48.840;9.314;2022-11-11T09:22:41;66.50;;;9.47;;
1308;SDS011;647;48.840;9.314;2022-11-11T09:25:08;66.87;;;8.50;;
1308;SDS011;647;48.840;9.314;2022-11-11T09:27:36;65.27;;;8.70;;
1308;SDS011;647;48.840;9.314;2022-11-11T09:30:04;64.00;;;7.77;;
1308;SDS011;647;48.840;9.314;2022-11-11T09:32:32;64.03;;;8.13;;
1308;SDS011;647;48.840;9.314;2022-11-11T09:34:59;63.27;;;7.90;;
1308;SDS011;647;48.840;9.314;2022-11-11T09:37:25;65.43;;;7.20;;
1308;SDS011;647;48.840;9.314;2022-11-11T09:39:53;64.40;;;7.40;;
1308;SDS011;647;48.840;9.314;2022-11-11T09:42:23;62.80;;;6.97;;
1308;SDS011;647;48.840;9.314;2022-11-11T09:45:06;62.87;;;6.13;;
1308;SDS011;647;48.840;9.314;2022-11-11T09:47:41;64.20;;;6.90;;
1308;SDS011;647;48.840;9.314;2022-11-11T09:50:20;67.03;;;7.33;;
1308;SDS011;647;48.840;9.314;2022-11-11T09:52:51;66.47;;;6.93;;
1308;SDS011;647;48.840;9.314;2022-11-11T09:55:25;61.63;;;6.50;;
1308;SDS011;647;48.840;9.314;2022-11-11T09:57:57;64.20;;;6.67;;
1308;SDS011;647;48.840;9.314;2022-11-11T10:00:28;64.20;;;6.17;;
1308;SDS011;647;48.840;9.314;2022-11-11T10:02:58;62.87;;;6.53;;
1308;SDS011;647;48.840;9.314;2022-11-11T10:05:32;65.60;;;6.40;;
1308;SDS011;647;48.840;9.314;2022-11-11T10:08:05;62.37;;;6.07;;
1308;SDS011;647;48.840;9.314;2022-11-11T10:10:37;62.53;;;6.67;;
1308;SDS011;647;48.840;9.314;2022-11-11T10:13:11;62.10;;;6.83;;
1308;SDS011;647;48.840;9.314;2022-11-11T10:15:42;61.30;;;5.93;;
1308;SDS011;647;48.840;9.314;2022-11-11T10:18:21;63.17;;;6.90;;
1308;SDS011;647;48.840;9.314;2022-11-11T10:20:59;61.60;;;6.17;;
1308;SDS011;647;48.840;9.314;2022-11-11T10:23:31;62.07;;;6.37;;
1308;SDS011;647;48.840;9.314;2022-11-11T10:26:01;63.40;;;6.37;;
1308;SDS011;647;48.840;9.314;2022-11-11T10:28:34;63.03;;;5.80;;
1308;SDS011;647;48.840;9.314;2022-11-11T10:31:04;60.57;;;5.80;;
1308;SDS011;647;48.840;9.314;2022-11-11T10:33:40;60.87;;;5.50;;
1308;SDS011;647;48.840;9.314;2022-11-11T10:36:13;68.20;;;6.60;;
1308;SDS011;647;48.840;9.314;2022-11-11T10:38:44;60.37;;;5.80;;
1308;SDS011;647;48.840;9.314;2022-11-11T10:41:16;64.53;;;6.03;;
1308;SDS011;647;48.840;9.314;2022-11-11T10:43:46;62.40;;;5.70;;
1308;SDS011;647;48.840;9.314;2022-11-11T10:46:15;60.97;;;5.50;;
1308;SDS011;647;48.840;9.314;2022-11-11T10:48:49;61.37;;;5.40;;
1308;SDS011;647;48.840;9.314;2022-11-11T10:51:18;60.90;;;5.73;;
1308;SDS011;647;48.840;9.314;2022-11-11T10:53:48;61.03;;;5.60;;
1308;SDS011;647;48.840;9.314;2022-11-11T10:56:23;60.70;;;5.00;;
1308;SDS011;647;48.840;9.314;2022-11-11T10:58:56;62.13;;;5.53;;
1308;SDS011;647;48.840;9.314;2022-11-11T11:01:29;64.07;;;5.90;;
1308;SDS011;647;48.840;9.314;2022-11-11T11:04:02;63.17;;;5.10;;
1308;SDS011;647;48.840;9.314;2022-11-11T11:06:32;61.70;;;5.00;;
1308;SDS011;647;48.840;9.314;2022-11-11T11:09:05;59.93;;;4.80;;
1308;SDS011;647;48.840;9.314;2022-11-11T11:11:38;60.00;;;5.00;;
1308;SDS011;647;48.840;9.314;2022-11-11T11:14:10;61.47;;;5.63;;
1308;SDS011;647;48.840;9.314;2022-11-11T11:16:45;60.80;;;5.00;;
1308;SDS011;647;48.840;9.314;2022-11-11T11:19:16;60.60;;;5.37;;
1308;SDS011;647;48.840;9.314;2022-11-11T11:21:48;62.50;;;5.37;;
1308;SDS011;647;48.840;9.314;2022-11-11T11:24:18;61.63;;;5.90;;
1308;SDS011;647;48.840;9.314;2022-11-11T11:26:46;64.37;;;8.10;;
1308;SDS011;647;48.840;9.314;2022-11-11T11:29:22;62.27;;;7.40;;
1308;SDS011;647;48.840;9.314;2022-11-11T11:31:52;63.00;;;6.67;;
1308;SDS011;647;48.840;9.314;2022-11-11T11:34:20;60.37;;;5.77;;
1308;SDS011;647;48.840;9.314;2022-11-11T11:36:57;61.17;;;5.83;;
1308;SDS011;647;48.840;9.314;2022-11-11T11:39:32;64.50;;;5.80;;
1308;SDS011;647;48.840;9.314;2022-11-11T11:42:00;61.80;;;5.23;;
1308;SDS011;647;48.840;9.314;2022-11-11T11:44:27;61.20;;;5.13;;
1308;SDS011;647;48.840;9.314;2022-11-11T11:46:59;64.00;;;4.80;;
1308;SDS011;647;48.840;9.314;2022-11-11T11:49:41;61.67;;;4.90;;
1308;SDS011;647;48.840;9.314;2022-11-11T11:52:24;62.70;;;5.10;;
1308;SDS011;647;48.840;9.314;2022-11-11T11:55:00;60.20;;;4.30;;
1308;SDS011;647;48.840;9.314;2022-11-11T11:57:36;59.80;;;4.50;;
1308;SDS011;647;48.840;9.314;2022-11-11T12:00:12;61.97;;;4.70;;
1308;SDS011;647;48.840;9.314;2022-11-11T12:02:53;59.47;;;4.10;;
1308;SDS011;647;48.840;9.314;2022-11-11T12:05:35;59.50;;;4.30;;
1308;SDS011;647;48.840;9.314;2022-11-11T12:08:09;60.60;;;4.43;;
1308;SDS011;647;48.840;9.314;2022-11-11T12:10:51;59.33;;;4.40;;
1308;SDS011;647;48.840;9.314;2022-11-11T12:13:26;64.67;;;4.33;;
1308;SDS011;647;48.840;9.314;2022-11-11T12:16:06;58.73;;;3.93;;
1308;SDS011;647;48.840;9.314;2022-11-11T12:18:54;60.87;;;5.50;;
1308;SDS011;647;48.840;9.314;2022-11-11T12:21:33;60.00;;;4.20;;
1308;SDS011;647;48.840;9.314;2022-11-11T12:24:07;65.70;;;6.10;;
1308;SDS011;647;48.840;9.314;2022-11-11T12:26:43;59.83;;;4.87;;
1308;SDS011;647;48.840;9.314;2022-11-11T12:29:21;66.17;;;5.60;;
1308;SDS011;647;48.840;9.314;2022-11-11T12:32:01;64.03;;;4.93;;
1308;SDS011;647;48.840;9.314;2022-11-11T12:34:56;60.63;;;4.60;;
1308;SDS011;647;48.840;9.314;2022-11-11T12:37:40;59.60;;;3.93;;
1308;SDS011;647;48.840;9.314;2022-11-11T12:40:16;60.60;;;4.47;;
1308;SDS011;647;48.840;9.314;2022-11-11T12:42:52;59.90;;;4.40;;
1308;SDS011;647;48.840;9.314;2022-11-11T12:45:29;61.43;;;4.80;;
1308;SDS011;647;48.840;9.314;2022-11-11T12:48:05;59.60;;;4.60;;
1308;SDS011;647;48.840;9.314;2022-11-11T12:50:48;62.80;;;4.53;;
1308;SDS011;647;48.840;9.314;2022-11-11T12:53:22;60.17;;;4.67;;
1308;SDS011;647;48.840;9.314;2022-11-11T12:56:00;60.00;;;4.33;;
1308;SDS011;647;48.840;9.314;2022-11-11T12:58:36;61.17;;;4.70;;
1308;SDS011;647;48.840;9.314;2022-11-11T13:01:12;60.10;;;4.30;;
1308;SDS011;647;48.840;9.314;2022-11-11T13:03:53;63.00;;;7.80;;
1308;SDS011;647;48.840;9.314;2022-11-11T13:06:42;59.17;;;4.23;;
1308;SDS011;647;48.840;9.314;2022-11-11T13:09:22;59.57;;;4.20;;
1308;SDS011;647;48.840;9.314;2022-11-11T13:12:09;61.83;;;4.67;;
1308;SDS011;647;48.840;9.314;2022-11-11T13:14:46;60.73;;;4.20;;
1308;SDS011;647;48.840;9.314;2022-11-11T13:17:19;59.30;;;3.73;;
1308;SDS011;647;48.840;9.314;2022-11-11T13:19:48;58.97;;;3.73;;
1308;SDS011;647;48.840;9.314;2022-11-11T13:22:22;60.30;;;4.40;;
1308;SDS011;647;48.840;9.314;2022-11-11T13:24:51;61.50;;;4.57;;
1308;SDS011;647;48.840;9.314;2022-11-11T13:27:23;60.70;;;4.00;;
1308;SDS011;647;48.840;9.314;2022-11-11T13:30:02;59.90;;;4.47;;
1308;SDS011;647;48.840;9.314;2022-11-11T13:32:52;61.57;;;4.20;;
1308;SDS011;647;48.840;9.314;2022-11-11T13:35:26;59.40;;;4.50;;
1308;SDS011;647;48.840;9.314;2022-11-11T13:37:57;58.80;;;3.70;;
1308;SDS011;647;48.840;9.314;2022-11-11T13:40:34;59.37;;;3.80;;
1308;SDS011;647;48.840;9.314;2022-11-11T13:43:02;59.37;;;5.10;;
1308;SDS011;647;48.840;9.314;2022-11-11T13:45:32;62.27;;;3.80;;
1308;SDS011;647;48.840;9.314;2022-11-11T13:48:03;59.37;;;4.07;;
1308;SDS011;647;48.840;9.314;2022-11-11T13:50:31;60.70;;;3.60;;
1308;SDS011;647;48.840;9.314;2022-11-11T13:53:03;61.17;;;3.90;;
1308;SDS011;647;48.840;9.314;2022-11-11T13:55:31;59.50;;;4.30;;
1308;SDS011;647;48.840;9.314;2022-11-11T13:58:01;58.77;;;4.20;;
1308;SDS011;647;48.840;9.314;2022-11-11T14:00:30;61.40;;;4.30;;
1308;SDS011;647;48.840;9.314;2022-11-11T14:09:03;59.30;;;4.10;;
1308;SDS011;647;48.840;9.314;2022-11-11T14:11:30;59.70;;;4.10;;
1308;SDS011;647;48.840;9.314;2022-11-11T14:17:04;61.20;;;4.23;;
1308;SDS011;647;48.840;9.314;2022-11-11T14:19:39;62.00;;;4.20;;
1308;SDS011;647;48.840;9.314;2022-11-11T14:24:56;59.20;;;4.20;;
1308;SDS011;647;48.840;9.314;2022-11-11T14:27:39;59.80;;;4.87;;
1308;SDS011;647;48.840;9.314;2022-11-11T14:30:11;77.97;;;19.37;;
1308;SDS011;647;48.840;9.314;2022-11-11T14:33:00;77.63;;;18.07;;
1308;SDS011;647;48.840;9.314;2022-11-11T14:35:36;197.90;;;106.17;;
1308;SDS011;647;48.840;9.314;2022-11-11T14:38:18;91.47;;;28.27;;
1308;SDS011;647;48.840;9.314;2022-11-11T14:40:53;67.53;;;9.93;;
1308;SDS011;647;48.840;9.314;2022-11-11T14:43:33;66.37;;;10.43;;
1308;SDS011;647;48.840;9.314;2022-11-11T14:46:05;64.57;;;6.30;;
1308;SDS011;647;48.840;9.314;2022-11-11T14:48:49;62.63;;;6.10;;
1308;SDS011;647;48.840;9.314;2022-11-11T14:54:34;62.03;;;4.70;;
1308;SDS011;647;48.840;9.314;2022-11-11T14:57:22;59.97;;;5.23;;
1308;SDS011;647;48.840;9.314;2022-11-11T14:59:51;61.93;;;6.03;;
1308;SDS011;647;48.840;9.314;2022-11-11T15:02:27;62.03;;;4.57;;
1308;SDS011;647;48.840;9.314;2022-11-11T15:04:57;63.30;;;5.10;;
1308;SDS011;647;48.840;9.314;2022-11-11T15:07:33;60.87;;;4.10;;
1308;SDS011;647;48.840;9.314;2022-11-11T15:10:15;61.60;;;4.80;;
1308;SDS011;647;48.840;9.314;2022-11-11T15:13:02;61.70;;;4.57;;
1308;SDS011;647;48.840;9.314;2022-11-11T15:15:44;60.87;;;5.60;;
1308;SDS011;647;48.840;9.314;2022-11-11T15:18:34;64.00;;;7.33;;
1308;SDS011;647;48.840;9.314;2022-11-11T15:21:13;60.47;;;4.83;;
1308;SDS011;647;48.840;9.314;2022-11-11T15:23:46;60.33;;;4.30;;
1308;SDS011;647;48.840;9.314;2022-11-11T15:26:22;61.37;;;6.00;;
1308;SDS011;647;48.840;9.314;2022-11-11T15:29:04;62.07;;;5.13;;
1308;SDS011;647;48.840;9.314;2022-11-11T15:31:53;61.77;;;4.60;;
1308;SDS011;647;48.840;9.314;2022-11-11T15:34:29;61.17;;;5.20;;
1308;SDS011;647;48.840;9.314;2022-11-11T15:37:01;61.20;;;5.60;;
1308;SDS011;647;48.840;9.314;2022-11-11T15:39:33;62.00;;;6.13;;
1308;SDS011;647;48.840;9.314;2022-11-11T15:42:04;60.40;;;5.00;;
1308;SDS011;647;48.840;9.314;2022-11-11T15:44:37;61.50;;;5.90;;
1308;SDS011;647;48.840;9.314;2022-11-11T15:47:04;62.00;;;5.63;;
1308;SDS011;647;48.840;9.314;2022-11-11T15:49:38;62.73;;;5.77;;